Time;durP1;ratioP1;P1;durP2;ratioP2;P2;SDS_P1;SDS_P2;PMS_P1;PMS_P2;Temp;Humidity;BMP_temperature;BMP_pressure;BME280_temperature;BME280_humidity;BME280_pressure;Samples;Min_cycle;Max_cycle;Signal;HPM_P1;HPM_P2
2022/10/31 00:01:38;;;;;;;7.32;5.70;;;11.50;80.10;;;;;;4222176;28;20023;-89
2022/10/31 00:03:39;;;;;;;10.57;6.47;;;11.50;80.20;;;;;;4216820;28;20043;-89
2022/10/31 00:05:44;;;;;;;9.35;6.70;;;11.70;80.30;;;;;;4225970;28;20073;-89
2022/10/31 00:07:45;;;;;;;13.48;6.72;;;11.50;80.20;;;;;;4225509;28;20094;-89
2022/10/31 00:09:46;;;;;;;16.38;7.95;;;11.50;80.10;;;;;;4220016;28;20028;-88
2022/10/31 00:11:47;;;;;;;17.83;7.20;;;11.50;80.00;;;;;;4203861;28;20027;-89
2022/10/31 00:13:47;;;;;;;10.27;7.05;;;11.60;80.00;;;;;;4216886;28;20028;-89
2022/10/31 00:15:48;;;;;;;12.75;7.13;;;11.50;79.80;;;;;;4222427;28;20046;-90
2022/10/31 00:17:49;;;;;;;9.23;6.70;;;11.60;79.80;;;;;;4222473;28;20019;-89
2022/10/31 00:19:49;;;;;;;10.38;6.65;;;11.50;79.90;;;;;;4205169;28;20146;-88
2022/10/31 00:21:51;;;;;;;7.85;5.88;;;11.50;79.90;;;;;;4218159;28;20031;-89
2022/10/31 00:23:52;;;;;;;11.60;6.45;;;11.50;80.00;;;;;;4224277;28;20031;-89
2022/10/31 00:25:53;;;;;;;9.88;7.25;;;11.40;79.90;;;;;;4200271;28;20074;-89
2022/10/31 00:27:54;;;;;;;9.57;6.47;;;11.50;80.80;;;;;;4234185;28;20044;-87
2022/10/31 00:29:55;;;;;;;7.93;6.25;;;11.60;80.00;;;;;;4224170;28;20034;-89
2022/10/31 00:31:55;;;;;;;8.80;6.18;;;11.40;80.00;;;;;;4223592;28;20524;-88
2022/10/31 00:33:57;;;;;;;10.68;5.97;;;11.40;80.00;;;;;;4228055;28;20038;-88
2022/10/31 00:35:58;;;;;;;10.00;6.45;;;11.50;80.00;;;;;;4226813;27;20023;-89
2022/10/31 00:37:58;;;;;;;11.27;6.35;;;11.50;80.70;;;;;;4223143;28;20593;-89
2022/10/31 00:39:59;;;;;;;8.25;6.13;;;11.50;80.00;;;;;;4224150;28;20084;-90
2022/10/31 00:42:00;;;;;;;9.93;6.78;;;11.50;79.90;;;;;;4224915;28;20032;-89
2022/10/31 00:44:00;;;;;;;11.90;6.25;;;11.40;79.70;;;;;;4219090;28;20505;-89
2022/10/31 00:46:01;;;;;;;13.85;6.10;;;11.50;79.70;;;;;;4220965;28;20015;-89
2022/10/31 00:48:02;;;;;;;10.77;6.10;;;11.30;79.60;;;;;;4220767;28;20055;-89
2022/10/31 00:50:08;;;;;;;11.85;6.15;;;11.30;79.60;;;;;;4223255;28;20024;-89
2022/10/31 00:52:09;;;;;;;10.20;5.90;;;11.30;79.60;;;;;;4226447;28;20019;-89
2022/10/31 00:54:10;;;;;;;9.80;5.60;;;11.30;79.60;;;;;;4221558;28;20027;-88
2022/10/31 00:56:11;;;;;;;8.52;5.43;;;11.40;79.70;;;;;;4205112;28;20260;-89
2022/10/31 00:58:12;;;;;;;11.95;5.40;;;11.40;79.70;;;;;;4220699;28;20133;-89
2022/10/31 01:00:12;;;;;;;8.77;5.70;;;11.30;79.70;;;;;;4218460;28;20032;-88
2022/10/31 01:02:13;;;;;;;9.40;4.90;;;11.20;79.60;;;;;;4219814;28;20035;-89
2022/10/31 01:04:14;;;;;;;12.25;5.38;;;11.20;79.60;;;;;;4221964;28;20058;-89
2022/10/31 01:06:15;;;;;;;9.20;6.35;;;11.20;79.60;;;;;;4221739;28;20567;-89
2022/10/31 01:08:16;;;;;;;14.75;7.07;;;11.20;79.70;;;;;;4215680;28;20028;-90
2022/10/31 01:10:17;;;;;;;12.40;7.18;;;11.20;79.90;;;;;;4203308;28;20065;-90
2022/10/31 01:12:18;;;;;;;13.65;7.63;;;11.20;80.30;;;;;;4223658;28;20098;-89
2022/10/31 01:14:19;;;;;;;12.27;8.05;;;11.20;80.40;;;;;;4222509;28;20023;-89
2022/10/31 01:16:23;;;;;;;14.35;8.65;;;11.30;80.70;;;;;;4224866;28;20039;-89
2022/10/31 01:18:24;;;;;;;13.77;9.15;;;11.40;81.00;;;;;;4218369;28;20751;-90
2022/10/31 01:20:25;;;;;;;18.70;8.75;;;11.40;81.20;;;;;;4218411;28;20039;-89
2022/10/31 01:22:25;;;;;;;21.73;9.68;;;11.40;81.40;;;;;;4213962;28;20035;-88
2022/10/31 01:24:26;;;;;;;14.20;9.30;;;11.40;81.60;;;;;;4212367;28;20210;-90
2022/10/31 01:26:30;;;;;;;17.55;9.25;;;11.40;81.70;;;;;;4224816;28;20047;-89
2022/10/31 01:28:31;;;;;;;16.55;9.77;;;11.50;81.90;;;;;;4205406;28;20034;-90
2022/10/31 01:30:32;;;;;;;20.38;9.85;;;11.50;82.00;;;;;;4237761;27;20114;-89
2022/10/31 01:32:32;;;;;;;19.90;10.07;;;11.60;82.20;;;;;;4218187;28;20019;-89
2022/10/31 01:34:34;;;;;;;21.38;10.10;;;11.50;82.30;;;;;;4225582;27;20116;-90
2022/10/31 01:36:37;;;;;;;21.80;10.48;;;11.50;82.30;;;;;;4230335;27;20019;-89
2022/10/31 01:38:38;;;;;;;15.25;10.43;;;11.60;82.50;;;;;;4222325;27;20208;-90
2022/10/31 01:40:39;;;;;;;22.05;10.30;;;11.70;82.60;;;;;;4225981;28;20035;-90
2022/10/31 01:42:59;;;;;;;20.17;9.20;;;11.70;82.60;;;;;;4227855;27;20046;-87
2022/10/31 01:45:20;;;;;;;18.13;9.23;;;11.80;82.70;;;;;;4220351;27;20034;-89
2022/10/31 01:47:45;;;;;;;18.63;8.90;;;11.80;82.70;;;;;;4226088;27;20066;-88
2022/10/31 01:49:50;;;;;;;17.60;10.43;;;11.80;82.60;;;;;;4225862;27;20020;-89
2022/10/31 01:52:00;;;;;;;20.17;10.07;;;11.90;82.60;;;;;;4225219;27;20022;-89
2022/10/31 01:54:07;;;;;;;20.83;10.15;;;11.90;82.60;;;;;;4218965;28;20017;-87
2022/10/31 01:56:08;;;;;;;15.77;9.80;;;11.90;82.60;;;;;;4228552;27;20040;-88
2022/10/31 01:58:22;;;;;;;19.67;10.27;;;11.90;82.60;;;;;;4227556;27;20116;-89
2022/10/31 02:00:23;;;;;;;;;;;11.90;82.70;;;;;;4206067;28;20088;-90
2022/10/31 02:02:25;;;;;;;20.63;10.68;;;12.00;83.20;;;;;;4218890;27;19912;-91
2022/10/31 02:04:27;;;;;;;20.70;10.57;;;12.00;82.50;;;;;;4221349;27;20424;-89
2022/10/31 02:06:58;;;;;;;22.70;11.23;;;12.00;82.50;;;;;;4217779;28;20035;-89
2022/10/31 02:09:00;;;;;;;23.38;11.63;;;12.00;82.80;;;;;;4227386;27;20020;-89
2022/10/31 02:11:01;;;;;;;20.15;11.65;;;12.00;82.80;;;;;;4221073;28;20035;-90
2022/10/31 02:13:05;;;;;;;27.50;12.55;;;12.10;83.00;;;;;;4227403;27;20483;-90
2022/10/31 02:15:08;;;;;;;21.58;11.95;;;12.20;83.10;;;;;;4225310;27;20023;-90
2022/10/31 02:17:09;;;;;;;21.30;11.55;;;12.10;83.10;;;;;;4226051;27;20459;-89
2022/10/31 02:19:25;;;;;;;25.30;11.68;;;12.20;83.20;;;;;;4204771;28;20039;-88
2022/10/31 02:21:57;;;;;;;26.13;11.50;;;12.20;83.20;;;;;;4216126;27;20028;-88
2022/10/31 02:24:43;;;;;;;24.75;11.68;;;12.20;83.20;;;;;;4198931;28;20813;-89
2022/10/31 02:27:21;;;;;;;23.92;11.23;;;12.20;83.20;;;;;;4223143;27;20024;-88
2022/10/31 02:30:00;;;;;;;20.92;10.23;;;12.40;83.20;;;;;;4204792;28;20028;-89
2022/10/31 02:33:04;;;;;;;16.88;9.60;;;12.30;83.00;;;;;;4221140;27;20441;-89
2022/10/31 02:35:41;;;;;;;17.33;9.05;;;12.30;82.80;;;;;;4157272;28;20029;-89
2022/10/31 02:38:33;;;;;;;22.48;11.52;;;12.30;82.60;;;;;;4158486;28;20044;-89
2022/10/31 02:40:49;;;;;;;24.17;10.88;;;12.30;82.40;;;;;;4156488;28;20044;-89
2022/10/31 02:43:23;;;;;;;22.35;10.23;;;12.30;82.20;;;;;;4156020;28;20021;-89
2022/10/31 02:45:54;;;;;;;21.20;9.73;;;12.20;82.10;;;;;;4139279;28;20034;-89
2022/10/31 02:48:19;;;;;;;19.98;10.35;;;12.40;82.10;;;;;;4153550;28;20033;-89
2022/10/31 02:50:31;;;;;;;26.20;11.52;;;12.40;82.00;;;;;;4122375;28;20023;-89
2022/10/31 02:52:52;;;;;;;25.83;12.48;;;12.30;81.80;;;;;;4141019;28;20076;-89
2022/10/31 02:55:25;;;;;;;23.17;11.25;;;12.20;81.70;;;;;;4157484;28;20038;-89
2022/10/31 02:57:46;;;;;;;21.33;11.25;;;12.20;81.80;;;;;;4144031;28;20041;-89
2022/10/31 03:00:08;;;;;;;23.15;10.65;;;12.20;81.70;;;;;;4152283;28;20041;-89
2022/10/31 03:02:35;;;;;;;24.80;11.32;;;12.10;81.60;;;;;;4158742;28;20021;-88
2022/10/31 03:05:02;;;;;;;27.90;9.88;;;12.10;81.50;;;;;;4139158;28;20033;-89
2022/10/31 03:07:40;;;;;;;21.95;9.25;;;12.10;81.40;;;;;;4224247;28;20028;-88
2022/10/31 03:10:04;;;;;;;25.73;10.27;;;12.00;81.20;;;;;;4220951;27;20028;-90
2022/10/31 03:12:11;;;;;;;23.98;10.73;;;12.00;81.10;;;;;;4223413;28;20024;-90
2022/10/31 03:14:31;;;;;;;19.65;10.55;;;12.00;81.20;;;;;;4214963;27;20155;-89
2022/10/31 03:16:46;;;;;;;19.20;10.73;;;11.90;81.10;;;;;;4225329;27;20104;-88
2022/10/31 03:18:56;;;;;;;17.38;9.68;;;11.90;81.10;;;;;;4222234;28;20036;-89
2022/10/31 03:21:29;;;;;;;23.23;10.15;;;11.90;81.00;;;;;;4239940;27;20030;-89
2022/10/31 03:23:34;;;;;;;17.35;9.55;;;11.90;81.00;;;;;;4118545;28;20046;-89
2022/10/31 03:25:36;;;;;;;22.27;11.07;;;11.80;80.90;;;;;;4134771;28;20042;-89
2022/10/31 03:27:39;;;;;;;17.58;10.00;;;11.90;81.00;;;;;;4152976;28;20033;-89
2022/10/31 03:29:43;;;;;;;19.73;9.00;;;11.80;81.00;;;;;;4139100;28;20052;-90
2022/10/31 03:31:51;;;;;;;19.00;8.90;;;11.90;81.00;;;;;;4140121;28;20033;-89
2022/10/31 03:33:53;;;;;;;22.27;9.82;;;11.70;80.80;;;;;;4152262;28;20124;-89
2022/10/31 03:35:57;;;;;;;22.77;10.47;;;11.80;80.90;;;;;;4139772;28;20044;-90
2022/10/31 03:38:00;;;;;;;22.55;9.43;;;11.70;80.80;;;;;;4144077;28;20408;-90
2022/10/31 03:40:03;;;;;;;25.27;10.23;;;11.70;80.90;;;;;;4139945;28;20068;-89
2022/10/31 03:42:10;;;;;;;17.67;8.63;;;11.60;80.80;;;;;;4140976;28;20073;-89
2022/10/31 03:44:17;;;;;;;20.20;9.30;;;11.70;80.80;;;;;;4134822;28;20026;-89
2022/10/31 03:46:18;;;;;;;14.82;8.77;;;11.60;80.80;;;;;;4156206;28;20018;-90
2022/10/31 03:48:21;;;;;;;17.60;8.52;;;11.60;80.80;;;;;;4153098;28;20576;-88
2022/10/31 03:50:28;;;;;;;18.10;8.30;;;11.50;80.70;;;;;;4154656;28;20044;-90
2022/10/31 03:53:14;;;;;;;19.05;9.20;;;11.50;80.70;;;;;;4153396;28;20065;-90
2022/10/31 03:55:24;;;;;;;15.15;7.72;;;11.50;80.70;;;;;;4106596;28;20042;-90
2022/10/31 03:57:55;;;;;;;12.95;7.10;;;11.40;80.50;;;;;;4127572;28;20038;-91
2022/10/31 04:00:16;;;;;;;11.93;6.68;;;11.40;80.40;;;;;;4144076;28;20068;-89
2022/10/31 04:02:45;;;;;;;18.17;9.60;;;11.40;80.30;;;;;;4152038;28;20056;-89
2022/10/31 04:05:08;;;;;;;39.45;12.23;;;11.30;80.30;;;;;;4155926;28;20038;-90
2022/10/31 04:07:33;;;;;;;84.15;12.88;;;11.30;80.40;;;;;;4143298;28;20038;-90
2022/10/31 04:09:55;;;;;;;49.33;12.88;;;11.40;80.80;;;;;;4150288;28;20113;-90
2022/10/31 04:12:17;;;;;;;43.53;13.32;;;11.30;81.20;;;;;;4142889;28;20092;-89
2022/10/31 04:14:39;;;;;;;45.45;12.77;;;11.30;81.40;;;;;;4153700;28;20037;-89
2022/10/31 04:17:03;;;;;;;46.60;14.25;;;11.30;81.70;;;;;;4174985;28;20021;-88
2022/10/31 04:19:23;;;;;;;52.40;15.40;;;11.30;81.90;;;;;;4160382;28;20089;-88
2022/10/31 04:21:44;;;;;;;37.95;14.32;;;11.30;82.10;;;;;;4141615;28;20025;-88
2022/10/31 04:24:05;;;;;;;47.53;15.52;;;11.40;82.30;;;;;;4151514;28;20049;-90
2022/10/31 04:26:05;;;;;;;35.85;15.30;;;11.40;82.50;;;;;;4150787;28;20041;-90
2022/10/31 04:28:06;;;;;;;46.92;15.10;;;11.50;82.80;;;;;;4153536;28;20500;-87
2022/10/31 04:30:07;;;;;;;29.52;14.73;;;11.50;83.00;;;;;;4138589;28;20113;-89
2022/10/31 04:32:08;;;;;;;52.17;15.98;;;11.40;83.00;;;;;;4225456;28;20396;-89
2022/10/31 04:34:08;;;;;;;56.00;15.40;;;11.50;83.30;;;;;;4219931;28;20030;-89
2022/10/31 04:36:10;;;;;;;44.08;14.88;;;11.50;83.40;;;;;;4219979;28;20035;-90
2022/10/31 04:38:10;;;;;;;68.88;14.10;;;11.60;83.50;;;;;;4220353;28;20076;-90
2022/10/31 04:40:11;;;;;;;35.20;13.25;;;11.60;83.50;;;;;;4199382;28;20058;-89
2022/10/31 04:42:12;;;;;;;54.00;14.70;;;11.60;83.60;;;;;;4221658;28;20020;-89
2022/10/31 04:44:13;;;;;;;40.40;13.90;;;11.60;83.60;;;;;;4218619;28;20055;-91
2022/10/31 04:46:13;;;;;;;48.50;13.07;;;11.60;83.60;;;;;;4205229;28;20137;-91
2022/10/31 04:48:14;;;;;;;32.75;13.57;;;11.70;83.70;;;;;;4219206;28;20042;-89
2022/10/31 04:50:15;;;;;;;34.47;14.02;;;11.80;83.80;;;;;;4208231;28;20027;-91
2022/10/31 04:52:16;;;;;;;38.80;13.65;;;11.70;83.70;;;;;;4223596;28;20028;-89
2022/10/31 04:54:16;;;;;;;25.40;12.13;;;11.80;84.50;;;;;;4218410;28;20026;-90
2022/10/31 04:56:17;;;;;;;43.97;13.25;;;11.90;83.70;;;;;;4202478;28;20024;-91
2022/10/31 04:58:18;;;;;;;35.55;13.57;;;11.80;83.60;;;;;;4205579;28;20081;-89
2022/10/31 05:00:21;;;;;;;47.35;12.88;;;11.90;83.70;;;;;;4200895;28;20028;-90
2022/10/31 05:02:21;;;;;;;54.90;13.25;;;11.80;83.60;;;;;;4218766;28;20576;-90
2022/10/31 05:04:22;;;;;;;59.00;13.23;;;11.80;83.60;;;;;;4219603;28;20092;-88
2022/10/31 05:06:23;;;;;;;53.58;13.52;;;11.80;83.60;;;;;;4218974;27;20035;-91
2022/10/31 05:08:23;;;;;;;51.40;12.63;;;11.80;83.50;;;;;;4217617;28;20024;-88
2022/10/31 05:10:27;;;;;;;26.42;11.30;;;11.90;83.50;;;;;;4205161;28;20032;-88
2022/10/31 05:12:28;;;;;;;32.72;10.88;;;11.80;83.40;;;;;;4200574;28;20688;-89
2022/10/31 05:14:29;;;;;;;26.88;10.70;;;11.80;83.30;;;;;;4223092;27;20111;-89
2022/10/31 05:16:30;;;;;;;24.05;9.52;;;11.90;83.40;;;;;;4201177;28;20032;-88
2022/10/31 05:18:31;;;;;;;18.50;9.55;;;11.80;83.20;;;;;;4215448;27;20111;-89
2022/10/31 05:20:32;;;;;;;109.95;11.10;;;11.80;83.20;;;;;;4216955;28;20062;-90
2022/10/31 05:22:32;;;;;;;68.13;10.25;;;11.80;83.10;;;;;;4213091;28;20028;-90
2022/10/31 05:24:33;;;;;;;23.65;8.05;;;11.90;83.20;;;;;;4221050;27;20024;-89
2022/10/31 05:26:34;;;;;;;32.60;8.93;;;11.80;83.10;;;;;;4203949;28;20021;-89
2022/10/31 05:28:36;;;;;;;14.48;8.10;;;11.80;83.10;;;;;;4224150;27;20030;-90
2022/10/31 05:30:38;;;;;;;59.10;9.82;;;11.80;83.00;;;;;;4218450;27;20081;-89
2022/10/31 05:32:43;;;;;;;42.58;9.25;;;11.80;83.00;;;;;;4199813;28;20028;-89
2022/10/31 05:34:45;;;;;;;39.20;9.02;;;11.90;83.00;;;;;;4211710;28;20028;-90
2022/10/31 05:37:06;;;;;;;35.28;7.95;;;11.80;82.90;;;;;;4221508;27;20036;-90
2022/10/31 05:39:06;;;;;;;28.83;7.95;;;11.80;82.80;;;;;;4214062;27;20032;-90
2022/10/31 05:41:10;;;;;;;39.63;8.23;;;11.90;82.70;;;;;;4208130;28;20440;-89
2022/10/31 05:43:30;;;;;;;22.85;7.15;;;11.80;82.60;;;;;;4219090;27;20036;-89
2022/10/31 05:45:56;;;;;;;38.45;8.10;;;11.70;82.50;;;;;;4219666;27;20501;-89
2022/10/31 05:47:58;;;;;;;26.40;7.90;;;11.70;82.30;;;;;;4216839;27;20066;-89
2022/10/31 05:50:19;;;;;;;17.98;7.18;;;11.70;82.30;;;;;;4219129;27;20028;-90
2022/10/31 05:52:19;;;;;;;47.83;7.22;;;11.70;82.20;;;;;;4207450;28;20161;-90
2022/10/31 05:54:40;;;;;;;80.38;9.02;;;11.80;82.20;;;;;;4217802;27;20537;-90
2022/10/31 05:57:01;;;;;;;43.17;6.55;;;11.60;81.90;;;;;;4223608;28;20511;-89
2022/10/31 05:59:21;;;;;;;31.10;6.53;;;11.60;81.60;;;;;;4209796;27;20601;-87
2022/10/31 06:01:42;;;;;;;38.55;6.30;;;11.60;81.60;;;;;;4198948;27;20771;-87
2022/10/31 06:04:02;;;;;;;16.95;5.50;;;11.70;81.60;;;;;;4209348;27;20176;-88
2022/10/31 06:06:23;;;;;;;18.70;5.32;;;11.50;81.40;;;;;;4215914;27;20523;-87
2022/10/31 06:08:44;;;;;;;17.17;5.00;;;11.50;81.50;;;;;;4218767;27;20578;-87
2022/10/31 06:11:04;;;;;;;8.85;5.50;;;11.50;81.50;;;;;;4211263;27;20038;-87
2022/10/31 06:13:25;;;;;;;25.05;5.03;;;11.40;81.40;;;;;;4213794;27;20061;-87
2022/10/31 06:15:42;;;;;;;38.35;5.22;;;11.50;81.50;;;;;;4216694;27;20898;-87
2022/10/31 06:17:43;;;;;;;12.52;5.57;;;11.40;81.40;;;;;;4216563;27;20542;-87
2022/10/31 06:19:44;;;;;;;23.08;5.13;;;11.40;81.40;;;;;;4221977;27;20016;-86
2022/10/31 06:21:46;;;;;;;37.45;5.78;;;11.30;81.40;;;;;;4227200;27;20023;-87
2022/10/31 06:23:46;;;;;;;8.20;4.90;;;11.30;81.40;;;;;;4220741;27;20724;-85
2022/10/31 06:25:50;;;;;;;7.10;4.35;;;11.40;81.40;;;;;;4220771;27;20024;-86
2022/10/31 06:27:51;;;;;;;11.93;4.55;;;11.30;81.40;;;;;;4212527;27;20582;-85
2022/10/31 06:29:52;;;;;;;7.05;4.53;;;11.20;81.40;;;;;;4219980;27;20051;-87
2022/10/31 06:31:53;;;;;;;13.38;4.63;;;11.20;81.40;;;;;;4216460;27;20024;-86
2022/10/31 06:33:53;;;;;;;14.88;4.30;;;11.20;82.10;;;;;;4216333;27;20107;-86
2022/10/31 06:35:54;;;;;;;8.88;4.32;;;11.30;81.50;;;;;;4198631;28;20016;-87
2022/10/31 06:37:55;;;;;;;12.02;4.47;;;11.30;81.40;;;;;;4217155;27;20023;-86
2022/10/31 06:39:56;;;;;;;6.47;4.00;;;11.10;81.30;;;;;;4201338;28;20565;-87
2022/10/31 06:41:56;;;;;;;4.55;3.78;;;11.20;81.40;;;;;;4190592;28;20012;-87
2022/10/31 06:43:57;;;;;;;8.50;4.25;;;11.20;81.50;;;;;;4194908;28;20403;-86
2022/10/31 06:46:02;;;;;;;10.40;4.60;;;11.10;81.40;;;;;;4220270;27;20016;-86
2022/10/31 06:48:03;;;;;;;12.48;4.53;;;11.20;81.30;;;;;;4200907;28;20024;-86
2022/10/31 06:50:04;;;;;;;6.07;4.32;;;11.10;81.20;;;;;;4211173;28;20538;-87
2022/10/31 06:52:05;;;;;;;14.07;4.80;;;11.00;81.20;;;;;;4235626;27;20511;-87
2022/10/31 06:54:05;;;;;;;6.60;4.57;;;11.00;81.30;;;;;;4218284;27;20127;-86
2022/10/31 06:56:06;;;;;;;13.32;4.95;;;11.00;81.40;;;;;;4234240;27;20099;-86
2022/10/31 06:58:09;;;;;;;26.58;5.18;;;11.00;81.50;;;;;;4217540;27;20157;-87
2022/10/31 07:00:10;;;;;;;20.50;5.68;;;11.00;81.50;;;;;;4210523;27;20527;-89
2022/10/31 07:02:11;;;;;;;42.90;6.32;;;11.00;81.60;;;;;;4213700;28;20097;-86
2022/10/31 07:04:12;;;;;;;8.57;5.45;;;11.00;81.50;;;;;;4213073;28;20039;-87
2022/10/31 07:06:13;;;;;;;9.82;5.43;;;11.00;81.40;;;;;;4217227;27;20040;-86
2022/10/31 07:08:14;;;;;;;24.88;6.57;;;11.10;81.50;;;;;;4213177;27;20024;-87
2022/10/31 07:10:14;;;;;;;11.30;5.95;;;11.00;81.50;;;;;;4211373;27;20028;-86
2022/10/31 07:12:16;;;;;;;13.07;5.70;;;11.00;81.50;;;;;;4218130;27;20039;-86
2022/10/31 07:14:17;;;;;;;11.30;5.88;;;11.10;81.50;;;;;;4218257;27;20028;-86
2022/10/31 07:16:17;;;;;;;11.55;5.65;;;11.00;81.40;;;;;;4195602;28;20032;-86
2022/10/31 07:18:18;;;;;;;9.07;5.63;;;11.10;81.60;;;;;;4211557;27;20812;-86
2022/10/31 07:20:19;;;;;;;7.85;5.18;;;11.00;81.60;;;;;;4213326;28;20031;-86
2022/10/31 07:22:20;;;;;;;6.90;5.38;;;11.00;81.70;;;;;;4193721;28;20068;-87
2022/10/31 07:24:21;;;;;;;7.85;5.60;;;11.00;81.80;;;;;;4211971;28;20036;-87
2022/10/31 07:26:21;;;;;;;9.10;5.20;;;11.00;81.90;;;;;;4213402;27;20032;-86
2022/10/31 07:28:22;;;;;;;6.68;5.25;;;11.00;82.00;;;;;;4216179;27;20054;-86
2022/10/31 07:30:23;;;;;;;6.00;4.78;;;11.00;82.10;;;;;;4212552;28;20028;-86
2022/10/31 07:32:24;;;;;;;7.05;5.38;;;11.10;83.00;;;;;;4191135;28;20365;-87
2022/10/31 07:34:25;;;;;;;6.18;4.60;;;11.00;82.20;;;;;;4211074;28;20077;-87
2022/10/31 07:36:25;;;;;;;6.97;4.85;;;11.10;82.30;;;;;;4214694;27;20023;-87
2022/10/31 07:38:26;;;;;;;11.77;5.18;;;11.20;82.50;;;;;;4210781;27;20027;-87
2022/10/31 07:40:26;;;;;;;7.10;5.07;;;11.10;82.50;;;;;;4207325;27;20024;-86
2022/10/31 07:42:27;;;;;;;5.30;4.35;;;11.10;82.50;;;;;;4214123;27;20111;-86
2022/10/31 07:44:28;;;;;;;6.95;4.68;;;11.10;82.60;;;;;;4211811;28;20099;-86
2022/10/31 07:46:28;;;;;;;10.70;4.57;;;11.10;82.70;;;;;;4227810;27;20023;-85
2022/10/31 07:48:29;;;;;;;8.00;5.03;;;11.20;82.90;;;;;;4219908;27;20092;-86
2022/10/31 07:50:33;;;;;;;7.72;5.15;;;11.30;83.10;;;;;;4212456;28;20184;-86
2022/10/31 07:52:34;;;;;;;11.30;5.90;;;11.30;83.20;;;;;;4202728;28;20032;-86
2022/10/31 07:54:35;;;;;;;9.65;5.80;;;11.40;83.30;;;;;;4217262;28;20030;-86
2022/10/31 07:56:36;;;;;;;8.65;5.35;;;11.30;83.30;;;;;;4213107;28;20114;-86
2022/10/31 07:58:36;;;;;;;9.38;5.40;;;11.30;83.40;;;;;;4187182;28;20028;-86
2022/10/31 08:00:39;;;;;;;9.13;5.22;;;11.40;83.60;;;;;;4209504;27;20028;-88
2022/10/31 08:02:39;;;;;;;8.07;4.95;;;11.60;83.80;;;;;;4193768;28;20054;-86
2022/10/31 08:04:40;;;;;;;8.82;5.50;;;11.60;83.80;;;;;;4217597;27;20040;-88
2022/10/31 08:06:40;;;;;;;8.38;5.38;;;11.50;84.10;;;;;;4216150;28;20111;-87
2022/10/31 08:08:41;;;;;;;9.60;5.38;;;11.60;83.90;;;;;;4213101;28;20541;-86
2022/10/31 08:10:42;;;;;;;8.65;5.53;;;11.70;84.00;;;;;;4201266;28;20067;-88
2022/10/31 08:12:43;;;;;;;9.23;5.65;;;11.60;83.90;;;;;;4209384;28;20039;-88
2022/10/31 08:14:44;;;;;;;11.00;6.03;;;11.70;84.00;;;;;;4216024;28;20035;-89
2022/10/31 08:16:50;;;;;;;8.68;5.43;;;11.70;84.00;;;;;;4212107;28;20058;-87
2022/10/31 08:18:53;;;;;;;8.50;5.15;;;11.70;84.70;;;;;;4233363;27;20080;-88
2022/10/31 08:20:53;;;;;;;7.63;5.30;;;11.80;84.00;;;;;;4231682;27;20024;-88
2022/10/31 08:22:56;;;;;;;10.15;5.20;;;11.80;84.00;;;;;;4201229;28;20353;-88
2022/10/31 08:24:57;;;;;;;12.77;4.65;;;11.90;84.20;;;;;;4216160;28;20032;-88
2022/10/31 08:26:58;;;;;;;14.65;5.32;;;11.90;84.20;;;;;;4213195;28;20436;-88
2022/10/31 08:28:58;;;;;;;8.15;4.20;;;12.00;84.40;;;;;;4207224;28;20424;-88
2022/10/31 08:30:59;;;;;;;13.38;4.97;;;12.00;84.40;;;;;;4207742;28;20034;-87
2022/10/31 08:33:13;;;;;;;8.98;4.65;;;12.10;84.60;;;;;;4205117;28;20085;-87
2022/10/31 08:35:14;;;;;;;7.67;4.40;;;12.10;84.80;;;;;;4211661;28;20027;-87
2022/10/31 08:37:19;;;;;;;13.95;5.05;;;12.20;84.90;;;;;;4220416;27;20273;-88
2022/10/31 08:39:20;;;;;;;10.75;4.38;;;12.20;85.00;;;;;;4216242;27;20038;-88
2022/10/31 08:41:21;;;;;;;10.68;4.65;;;12.30;85.10;;;;;;4223010;27;20044;-87
2022/10/31 08:43:22;;;;;;;11.98;4.75;;;12.30;85.00;;;;;;4222914;27;20085;-87
2022/10/31 08:45:23;;;;;;;11.25;3.83;;;12.30;85.00;;;;;;4227948;27;20159;-88
2022/10/31 08:47:24;;;;;;;8.15;4.20;;;12.40;85.00;;;;;;4232359;27;20024;-88
2022/10/31 08:49:25;;;;;;;6.82;4.00;;;12.50;85.00;;;;;;4233194;27;20024;-88
2022/10/31 08:51:26;;;;;;;7.97;3.67;;;12.50;85.00;;;;;;4237159;27;20243;-88
2022/10/31 08:53:27;;;;;;;8.82;3.67;;;12.50;84.90;;;;;;4237355;27;20242;-88
2022/10/31 08:55:28;;;;;;;7.05;4.15;;;12.50;84.90;;;;;;4240453;27;20071;-88
2022/10/31 08:57:29;;;;;;;9.23;4.25;;;12.50;84.90;;;;;;4238566;27;20031;-87
2022/10/31 08:59:29;;;;;;;9.85;4.07;;;12.60;85.00;;;;;;4234929;27;20037;-88
2022/10/31 09:01:30;;;;;;;9.90;3.70;;;12.70;85.00;;;;;;4229697;27;20035;-89
2022/10/31 09:03:51;;;;;;;12.07;3.83;;;12.70;85.00;;;;;;4221823;27;20042;-88
2022/10/31 09:06:11;;;;;;;7.47;4.00;;;12.70;84.90;;;;;;4222039;27;20034;-87
2022/10/31 09:08:12;;;;;;;5.82;4.15;;;12.80;85.00;;;;;;4222487;27;20028;-88
2022/10/31 09:10:22;;;;;;;6.93;4.32;;;12.70;84.90;;;;;;4225060;27;20115;-88
2022/10/31 09:12:43;;;;;;;7.68;4.47;;;12.80;84.80;;;;;;4228658;27;20040;-87
2022/10/31 09:15:06;;;;;;;9.18;4.80;;;12.90;84.80;;;;;;4229438;27;20031;-89
2022/10/31 09:17:07;;;;;;;;;;;12.90;84.80;;;;;;4222601;27;20035;-88
2022/10/31 09:19:28;;;;;;;9.55;4.88;;;13.00;85.10;;;;;;4215523;27;19947;-87
2022/10/31 09:21:52;;;;;;;8.98;4.57;;;13.00;84.70;;;;;;4212657;27;20039;-88
2022/10/31 09:24:13;;;;;;;10.63;5.38;;;13.10;84.70;;;;;;4212505;27;20134;-88
2022/10/31 09:26:33;;;;;;;7.93;4.68;;;13.10;84.80;;;;;;4225290;27;20127;-89
2022/10/31 09:28:35;;;;;;;9.15;4.95;;;13.10;84.80;;;;;;4232055;27;20092;-88
2022/10/31 09:30:55;;;;;;;11.52;5.22;;;13.10;84.90;;;;;;4226353;27;20043;-89
2022/10/31 09:33:17;;;;;;;10.13;5.38;;;13.20;85.10;;;;;;4238743;27;20226;-89
2022/10/31 09:35:18;;;;;;;8.60;4.97;;;13.20;85.20;;;;;;4203183;28;20039;-88
2022/10/31 09:37:38;;;;;;;13.00;5.70;;;13.30;85.30;;;;;;4220930;27;20031;-88
2022/10/31 09:40:00;;;;;;;8.25;5.13;;;13.30;85.30;;;;;;4218331;27;20035;-90
2022/10/31 09:42:36;;;;;;;6.72;4.22;;;13.40;85.50;;;;;;4231756;27;20059;-89
2022/10/31 09:45:06;;;;;;;13.55;4.63;;;13.50;85.60;;;;;;4224898;27;20147;-89
2022/10/31 09:47:55;;;;;;;10.48;4.20;;;13.60;85.50;;;;;;4230586;27;20039;-90
2022/10/31 09:50:25;;;;;;;9.43;4.10;;;13.60;85.40;;;;;;4218061;27;20055;-90
2022/10/31 09:53:09;;;;;;;11.95;4.88;;;13.70;85.40;;;;;;4217037;27;20083;-88
2022/10/31 09:55:44;;;;;;;9.18;4.50;;;13.80;85.30;;;;;;4228756;27;20032;-89
2022/10/31 09:58:05;;;;;;;;;;;13.80;85.10;;;;;;4225628;27;20035;-88
2022/10/31 10:00:25;;;;;;;12.75;3.63;;;13.90;85.30;;;;;;4222684;27;20010;-90
2022/10/31 10:02:46;;;;;;;10.18;3.33;;;14.00;84.90;;;;;;4213318;28;21087;-87
2022/10/31 10:04:54;;;;;;;8.75;3.17;;;14.00;84.90;;;;;;4217314;27;20128;-89
2022/10/31 10:06:56;;;;;;;9.13;3.10;;;14.10;84.80;;;;;;4232595;27;20524;-89
2022/10/31 10:08:57;;;;;;;9.93;3.63;;;14.10;84.80;;;;;;4230862;27;20034;-89
2022/10/31 10:11:33;;;;;;;7.97;3.20;;;14.20;84.80;;;;;;4232892;27;20027;-90
2022/10/31 10:13:44;;;;;;;7.32;3.08;;;14.20;84.50;;;;;;4219820;28;20024;-90
2022/10/31 10:15:58;;;;;;;13.93;3.22;;;14.20;84.40;;;;;;4227581;27;20038;-91
2022/10/31 10:18:17;;;;;;;15.23;3.30;;;14.30;84.30;;;;;;4218431;27;20051;-90
2022/10/31 10:20:48;;;;;;;11.13;3.10;;;14.30;84.10;;;;;;4218892;27;20503;-90
2022/10/31 10:22:54;;;;;;;21.20;2.83;;;14.30;84.00;;;;;;4222808;27;20839;-91
2022/10/31 10:25:10;;;;;;;10.60;2.85;;;14.40;84.10;;;;;;4207454;28;20028;-89
2022/10/31 10:27:42;;;;;;;8.50;2.80;;;14.40;84.10;;;;;;4220954;27;20024;-90
2022/10/31 10:30:06;;;;;;;15.32;2.92;;;14.50;83.90;;;;;;4218814;27;20071;-89
2022/10/31 10:32:28;;;;;;;16.90;2.40;;;14.50;83.50;;;;;;4200829;28;20045;-88
2022/10/31 10:34:38;;;;;;;14.23;2.42;;;14.60;83.40;;;;;;4214506;27;20188;-87
2022/10/31 10:36:44;;;;;;;10.90;2.35;;;14.70;83.60;;;;;;4220325;27;20046;-88
2022/10/31 10:38:57;;;;;;;8.80;2.45;;;14.80;83.70;;;;;;4247517;27;20018;-90
2022/10/31 10:41:02;;;;;;;11.73;2.60;;;14.70;83.70;;;;;;4238832;27;20516;-91
2022/10/31 10:43:26;;;;;;;15.10;2.50;;;14.80;83.60;;;;;;4206531;28;20212;-90
2022/10/31 10:48:07;;;;;;;12.50;2.47;;;14.90;83.00;;;;;;4224736;27;20035;-91
2022/10/31 10:50:19;;;;;;;8.98;2.00;;;15.00;82.70;;;;;;4224060;27;20019;-90
2022/10/31 10:52:23;;;;;;;8.98;1.90;;;15.00;82.70;;;;;;4222675;27;20088;-89
2022/10/31 10:55:03;;;;;;;11.13;1.77;;;15.10;82.60;;;;;;4206609;28;20089;-90
2022/10/31 10:57:12;;;;;;;8.50;1.58;;;15.10;81.90;;;;;;4233097;27;20114;-91
2022/10/31 10:59:18;;;;;;;7.15;0.93;;;15.20;81.70;;;;;;4230108;27;20159;-92
2022/10/31 11:01:22;;;;;;;8.27;1.60;;;15.20;81.60;;;;;;4221280;27;20035;-92
2022/10/31 11:03:23;;;;;;;6.80;1.80;;;15.30;81.30;;;;;;4210611;28;20392;-91
2022/10/31 11:05:26;;;;;;;11.43;1.55;;;15.30;80.80;;;;;;4226926;27;20106;-90